Time;durP1;ratioP1;P1;durP2;ratioP2;P2;SDS_P1;SDS_P2;PMS_P1;PMS_P2;Temp;Humidity;BMP_temperature;BMP_pressure;BME280_temperature;BME280_humidity;BME280_pressure;Samples;Min_cycle;Max_cycle;Signal;HPM_P1;HPM_P2
2023/05/06 00:04:55;;;;;;;14.75;11.85;;;;;;;;;;10301482;28;20083;-72
2023/05/06 00:09:54;;;;;;;12.32;10.35;;;;;;;;;;10296935;28;20095;-72
2023/05/06 00:14:52;;;;;;;11.10;9.93;;;;;;;;;;10299642;28;20069;-72
2023/05/06 00:19:51;;;;;;;15.02;11.73;;;;;;;;;;10300789;28;20484;-73
2023/05/06 00:24:50;;;;;;;27.10;22.52;;;;;;;;;;10303377;28;20068;-72
2023/05/06 00:29:48;;;;;;;17.05;13.07;;;;;;;;;;10301787;28;20064;-72
2023/05/06 00:34:47;;;;;;;21.90;15.48;;;;;;;;;;10300414;28;20068;-73
2023/05/06 00:39:45;;;;;;;25.73;17.13;;;;;;;;;;10299654;28;20068;-72
2023/05/06 00:44:44;;;;;;;25.02;15.73;;;;;;;;;;10298912;28;20060;-73
2023/05/06 00:49:45;;;;;;;23.45;13.52;;;;;;;;;;10294609;28;20087;-72
2023/05/06 00:54:43;;;;;;;16.10;12.23;;;;;;;;;;10296338;28;20075;-73
2023/05/06 00:59:42;;;;;;;14.43;10.27;;;;;;;;;;10301718;28;20072;-73
2023/05/06 01:04:42;;;;;;;13.35;10.40;;;;;;;;;;10299696;28;20069;-72
2023/05/06 01:09:42;;;;;;;11.15;10.07;;;;;;;;;;10298336;28;20057;-72
2023/05/06 01:14:46;;;;;;;17.70;11.15;;;;;;;;;;10300421;28;20075;-72
2023/05/06 01:19:48;;;;;;;19.40;17.15;;;;;;;;;;10292613;28;20095;-72
2023/05/06 01:24:48;;;;;;;20.95;18.95;;;;;;;;;;10297341;28;20078;-72
2023/05/06 01:29:47;;;;;;;15.93;12.73;;;;;;;;;;10295794;28;20076;-73
2023/05/06 01:34:49;;;;;;;13.27;11.95;;;;;;;;;;10296231;28;20064;-72
2023/05/06 01:39:49;;;;;;;13.05;11.85;;;;;;;;;;10294932;28;20494;-72
2023/05/06 01:44:48;;;;;;;16.17;12.55;;;;;;;;;;10299307;28;20064;-72
2023/05/06 01:49:47;;;;;;;13.98;11.48;;;;;;;;;;10298207;28;20064;-72
2023/05/06 01:54:45;;;;;;;16.30;12.15;;;;;;;;;;10297232;28;20064;-73
2023/05/06 01:59:44;;;;;;;18.60;15.57;;;;;;;;;;10293448;28;20517;-72
2023/05/06 02:04:44;;;;;;;25.92;17.05;;;;;;;;;;10297940;28;20071;-73
2023/05/06 02:09:42;;;;;;;25.15;17.15;;;;;;;;;;10293426;28;20064;-72
2023/05/06 02:14:41;;;;;;;23.77;17.25;;;;;;;;;;10297993;28;20044;-72
2023/05/06 02:19:40;;;;;;;23.75;20.02;;;;;;;;;;10293770;28;20478;-73
2023/05/06 02:24:39;;;;;;;19.75;17.75;;;;;;;;;;10294261;28;20112;-72
2023/05/06 02:29:37;;;;;;;24.45;15.35;;;;;;;;;;10290852;28;20511;-72
2023/05/06 02:34:35;;;;;;;14.68;12.90;;;;;;;;;;10295021;28;20063;-72
2023/05/06 02:39:34;;;;;;;12.60;11.07;;;;;;;;;;10296608;28;20458;-72
2023/05/06 02:44:33;;;;;;;11.68;10.57;;;;;;;;;;10297544;28;20513;-73
2023/05/06 02:49:31;;;;;;;17.73;12.23;;;;;;;;;;10294014;28;20080;-72
2023/05/06 02:54:29;;;;;;;20.30;10.85;;;;;;;;;;10293813;28;20072;-72
2023/05/06 02:59:29;;;;;;;13.52;10.32;;;;;;;;;;10291760;28;20094;-72
2023/05/06 03:04:27;;;;;;;12.73;10.85;;;;;;;;;;10296934;28;20064;-72
2023/05/06 03:09:25;;;;;;;15.10;11.18;;;;;;;;;;10299672;28;20159;-72
2023/05/06 03:14:24;;;;;;;21.58;11.80;;;;;;;;;;10300193;28;20469;-72
2023/05/06 03:19:25;;;;;;;13.20;11.10;;;;;;;;;;10301069;28;20063;-73
2023/05/06 03:24:24;;;;;;;16.55;10.98;;;;;;;;;;10299218;28;20075;-73
2023/05/06 03:29:22;;;;;;;15.73;11.27;;;;;;;;;;10295032;28;20068;-73
2023/05/06 03:34:21;;;;;;;12.77;11.50;;;;;;;;;;10301511;28;20084;-72
2023/05/06 03:39:21;;;;;;;15.63;12.40;;;;;;;;;;10302536;28;20060;-72
2023/05/06 03:44:19;;;;;;;21.33;15.52;;;;;;;;;;10301753;28;20076;-72
2023/05/06 03:49:19;;;;;;;20.10;14.70;;;;;;;;;;10300777;28;20076;-72
2023/05/06 03:54:18;;;;;;;17.45;12.52;;;;;;;;;;10306094;28;20091;-72
2023/05/06 03:59:18;;;;;;;25.67;13.70;;;;;;;;;;10297796;28;20087;-73
2023/05/06 04:04:17;;;;;;;15.20;12.82;;;;;;;;;;10298572;28;20080;-73
2023/05/06 04:09:15;;;;;;;15.38;13.77;;;;;;;;;;10296961;28;20068;-70
2023/05/06 04:14:14;;;;;;;28.52;21.70;;;;;;;;;;10303106;28;20450;-71
2023/05/06 04:19:16;;;;;;;30.88;24.45;;;;;;;;;;10299370;28;20084;-73
2023/05/06 04:24:15;;;;;;;24.70;19.38;;;;;;;;;;10304270;28;20080;-73
2023/05/06 04:29:14;;;;;;;26.48;21.20;;;;;;;;;;10299170;28;20850;-72
2023/05/06 04:34:27;;;;;;;27.45;20.17;;;;;;;;;;10299206;28;20084;-72
2023/05/06 04:39:30;;;;;;;23.52;21.02;;;;;;;;;;10295093;28;20303;-73
2023/05/06 04:44:29;;;;;;;33.13;25.58;;;;;;;;;;10296520;28;20080;-72
2023/05/06 04:49:30;;;;;;;27.08;19.52;;;;;;;;;;10304361;28;20574;-72
2023/05/06 04:54:28;;;;;;;21.52;16.08;;;;;;;;;;10304461;28;20080;-71
2023/05/06 04:59:27;;;;;;;25.88;17.30;;;;;;;;;;10296896;28;20063;-72
2023/05/06 05:04:25;;;;;;;20.45;14.02;;;;;;;;;;10295924;28;20447;-72
2023/05/06 05:09:25;;;;;;;18.90;13.52;;;;;;;;;;10299074;28;20072;-72
2023/05/06 05:14:23;;;;;;;20.88;13.85;;;;;;;;;;10295930;28;20065;-73
2023/05/06 05:19:22;;;;;;;21.42;13.10;;;;;;;;;;10295400;28;20052;-73
2023/05/06 05:24:21;;;;;;;18.88;10.30;;;;;;;;;;10295395;28;20087;-73
2023/05/06 05:29:21;;;;;;;13.82;10.05;;;;;;;;;;10296277;28;20068;-72
2023/05/06 05:34:19;;;;;;;16.52;8.88;;;;;;;;;;10299540;28;20099;-74
2023/05/06 05:39:20;;;;;;;10.73;7.88;;;;;;;;;;10302695;28;20072;-73
2023/05/06 05:44:19;;;;;;;13.30;8.43;;;;;;;;;;10297418;28;20067;-72
2023/05/06 05:49:19;;;;;;;10.65;7.75;;;;;;;;;;10295858;28;20044;-72
2023/05/06 05:54:19;;;;;;;10.32;6.72;;;;;;;;;;10293504;28;20087;-72
2023/05/06 05:59:18;;;;;;;8.38;7.57;;;;;;;;;;10292519;28;20095;-73
2023/05/06 06:04:20;;;;;;;10.32;9.18;;;;;;;;;;10293104;28;20076;-74
2023/05/06 06:09:21;;;;;;;13.98;9.23;;;;;;;;;;10311985;28;20079;-73
2023/05/06 06:14:20;;;;;;;8.50;6.35;;;;;;;;;;10298860;28;20084;-72
2023/05/06 06:19:20;;;;;;;13.30;6.38;;;;;;;;;;10300326;28;20090;-72
2023/05/06 06:24:19;;;;;;;8.38;7.18;;;;;;;;;;10301414;28;20484;-73
2023/05/06 06:29:18;;;;;;;11.10;9.23;;;;;;;;;;10296772;28;20064;-75
2023/05/06 06:34:17;;;;;;;11.65;6.75;;;;;;;;;;10296541;28;20513;-73
2023/05/06 06:39:16;;;;;;;8.45;7.65;;;;;;;;;;10303454;28;20076;-73
2023/05/06 06:44:15;;;;;;;8.43;6.60;;;;;;;;;;10300676;28;20087;-73
2023/05/06 06:49:13;;;;;;;11.05;6.47;;;;;;;;;;10309818;28;20066;-73
2023/05/06 06:54:11;;;;;;;12.70;6.20;;;;;;;;;;10303144;28;20410;-72
2023/05/06 06:59:11;;;;;;;6.78;6.03;;;;;;;;;;10296537;28;20072;-73
2023/05/06 07:04:09;;;;;;;9.52;6.65;;;;;;;;;;10308173;28;20094;-73
2023/05/06 07:09:07;;;;;;;9.00;6.90;;;;;;;;;;10302085;28;20498;-73
2023/05/06 07:14:05;;;;;;;9.95;7.28;;;;;;;;;;10305792;28;20068;-73
2023/05/06 07:19:05;;;;;;;13.70;8.20;;;;;;;;;;10303301;28;20080;-73
2023/05/06 07:24:03;;;;;;;10.73;6.63;;;;;;;;;;10301791;28;20532;-73
2023/05/06 07:29:02;;;;;;;7.95;6.28;;;;;;;;;;10303519;28;20516;-73
2023/05/06 07:34:01;;;;;;;7.13;5.22;;;;;;;;;;10304237;28;20446;-73
2023/05/06 07:39:00;;;;;;;9.15;6.20;;;;;;;;;;10299435;28;20064;-73
2023/05/06 07:43:59;;;;;;;8.63;6.60;;;;;;;;;;10305703;28;20076;-73
2023/05/06 07:48:57;;;;;;;7.47;5.30;;;;;;;;;;10296968;28;20072;-74
2023/05/06 07:53:55;;;;;;;8.18;5.47;;;;;;;;;;10296047;28;20493;-72
2023/05/06 07:59:00;;;;;;;8.85;5.30;;;;;;;;;;10301784;28;20083;-73
2023/05/06 08:04:00;;;;;;;7.38;4.82;;;;;;;;;;10301695;28;20076;-72
2023/05/06 08:08:59;;;;;;;8.30;5.28;;;;;;;;;;10294520;28;20072;-72
2023/05/06 08:13:57;;;;;;;9.73;7.55;;;;;;;;;;10299297;28;20486;-72
2023/05/06 08:18:56;;;;;;;13.68;6.85;;;;;;;;;;10301807;28;20083;-74
2023/05/06 08:23:54;;;;;;;10.80;6.63;;;;;;;;;;10300380;28;20068;-74
2023/05/06 08:28:54;;;;;;;9.25;7.93;;;;;;;;;;10313280;28;20079;-75
2023/05/06 08:33:52;;;;;;;12.30;7.93;;;;;;;;;;10301458;28;20107;-71
2023/05/06 08:38:53;;;;;;;12.13;5.30;;;;;;;;;;10295489;28;20056;-70
2023/05/06 08:43:52;;;;;;;7.35;3.45;;;;;;;;;;10290221;28;20072;-69
2023/05/06 08:48:50;;;;;;;6.95;5.60;;;;;;;;;;10296233;28;20068;-69
2023/05/06 08:53:50;;;;;;;6.25;3.90;;;;;;;;;;10293562;28;20478;-69
2023/05/06 08:58:51;;;;;;;6.38;4.65;;;;;;;;;;10290243;28;20064;-71
2023/05/06 09:03:50;;;;;;;6.90;4.32;;;;;;;;;;10293343;28;20076;-71
2023/05/06 09:08:48;;;;;;;5.97;4.30;;;;;;;;;;10289420;28;20061;-70
2023/05/06 09:13:46;;;;;;;4.72;3.58;;;;;;;;;;10297571;28;20063;-71
2023/05/06 09:18:46;;;;;;;9.80;4.35;;;;;;;;;;10296578;28;20080;-71
2023/05/06 09:23:44;;;;;;;5.28;4.18;;;;;;;;;;10297831;28;20075;-71
2023/05/06 09:28:45;;;;;;;5.43;3.90;;;;;;;;;;10294114;28;20063;-71
2023/05/06 09:33:43;;;;;;;4.25;3.72;;;;;;;;;;10295609;28;20580;-71
2023/05/06 09:38:43;;;;;;;5.32;3.72;;;;;;;;;;10296505;28;20467;-71
2023/05/06 09:43:43;;;;;;;7.05;4.00;;;;;;;;;;10297952;28;20095;-71
2023/05/06 09:48:42;;;;;;;8.75;3.83;;;;;;;;;;10295346;28;20064;-71
2023/05/06 09:53:43;;;;;;;6.38;3.70;;;;;;;;;;10295401;28;20144;-71
2023/05/06 09:58:54;;;;;;;4.78;3.45;;;;;;;;;;10297005;28;20118;-70
2023/05/06 10:03:53;;;;;;;9.77;4.13;;;;;;;;;;10298003;28;20076;-69
2023/05/06 10:08:54;;;;;;;4.72;3.25;;;;;;;;;;10298920;28;20067;-69
2023/05/06 10:13:52;;;;;;;8.15;4.28;;;;;;;;;;10298322;28;20080;-70
2023/05/06 10:18:53;;;;;;;11.35;4.00;;;;;;;;;;10292654;28;20076;-70
2023/05/06 10:23:55;;;;;;;10.48;4.30;;;;;;;;;;10292488;28;20103;-70
2023/05/06 10:28:53;;;;;;;5.07;3.70;;;;;;;;;;10294310;28;20076;-70
2023/05/06 10:33:52;;;;;;;8.93;3.58;;;;;;;;;;10295542;28;20071;-70
2023/05/06 10:38:55;;;;;;;8.35;3.47;;;;;;;;;;10295296;28;20068;-71
2023/05/06 10:43:55;;;;;;;7.47;4.43;;;;;;;;;;10295149;28;20072;-71
2023/05/06 10:49:12;;;;;;;4.07;3.47;;;;;;;;;;10294146;28;20079;-70
2023/05/06 10:54:23;;;;;;;6.90;3.70;;;;;;;;;;10293984;28;20089;-70
2023/05/06 10:59:23;;;;;;;5.93;3.33;;;;;;;;;;10291133;28;20064;-70
2023/05/06 11:04:22;;;;;;;5.45;3.88;;;;;;;;;;10292990;28;20087;-70
2023/05/06 11:09:21;;;;;;;9.25;4.45;;;;;;;;;;10295169;28;20589;-70
2023/05/06 11:14:28;;;;;;;6.60;3.55;;;;;;;;;;10294155;28;20068;-70
2023/05/06 11:19:27;;;;;;;6.40;3.80;;;;;;;;;;10295378;28;20092;-70
2023/05/06 11:24:26;;;;;;;5.20;3.47;;;;;;;;;;10295290;28;20076;-70
2023/05/06 11:29:24;;;;;;;6.18;3.88;;;;;;;;;;10289771;28;20068;-70
2023/05/06 11:34:26;;;;;;;6.50;3.55;;;;;;;;;;10300972;28;20075;-70
2023/05/06 11:39:24;;;;;;;4.43;3.20;;;;;;;;;;10299252;28;20086;-71
2023/05/06 11:44:29;;;;;;;4.80;3.47;;;;;;;;;;10300001;28;20075;-70
2023/05/06 11:49:29;;;;;;;6.95;3.22;;;;;;;;;;10307784;28;20730;-72
2023/05/06 11:54:27;;;;;;;5.10;2.85;;;;;;;;;;10306202;28;20083;-72
2023/05/06 11:59:29;;;;;;;8.88;3.47;;;;;;;;;;10299074;28;20078;-71
2023/05/06 12:04:37;;;;;;;4.30;3.15;;;;;;;;;;10305540;28;20084;-71
2023/05/06 12:09:37;;;;;;;8.93;4.22;;;;;;;;;;10298902;28;20041;-72
2023/05/06 12:14:36;;;;;;;7.93;3.13;;;;;;;;;;10299917;28;20064;-71
2023/05/06 12:19:36;;;;;;;9.60;3.20;;;;;;;;;;10302852;28;20081;-71
2023/05/06 12:24:34;;;;;;;9.90;3.67;;;;;;;;;;10301818;28;20096;-72
2023/05/06 12:29:32;;;;;;;5.60;3.10;;;;;;;;;;10299921;28;20071;-72
2023/05/06 12:34:37;;;;;;;6.32;3.35;;;;;;;;;;10293899;28;20245;-70
2023/05/06 12:39:36;;;;;;;9.75;4.10;;;;;;;;;;10295553;28;20079;-71
2023/05/06 12:44:35;;;;;;;5.80;3.63;;;;;;;;;;10296749;28;20076;-71
2023/05/06 12:49:51;;;;;;;5.35;3.70;;;;;;;;;;10294557;28;20498;-71
2023/05/06 12:54:49;;;;;;;6.22;3.83;;;;;;;;;;10299522;28;20079;-71
2023/05/06 12:59:48;;;;;;;4.00;3.13;;;;;;;;;;10301268;28;20068;-71
2023/05/06 13:04:46;;;;;;;8.75;4.13;;;;;;;;;;10298475;28;20076;-70
2023/05/06 13:09:46;;;;;;;11.25;3.58;;;;;;;;;;10291158;28;20446;-71
2023/05/06 13:14:44;;;;;;;7.50;3.38;;;;;;;;;;10293974;28;20727;-71
2023/05/06 13:19:42;;;;;;;8.52;3.45;;;;;;;;;;10297081;28;20080;-71
2023/05/06 13:24:40;;;;;;;4.57;3.15;;;;;;;;;;10292100;28;20119;-72
2023/05/06 13:29:41;;;;;;;4.32;3.10;;;;;;;;;;10290463;28;20068;-72
2023/05/06 13:34:39;;;;;;;5.28;3.10;;;;;;;;;;10288759;28;20085;-71
2023/05/06 13:39:38;;;;;;;7.15;3.35;;;;;;;;;;10294283;28;20102;-70
2023/05/06 13:44:36;;;;;;;4.25;3.20;;;;;;;;;;10290971;28;20068;-71
2023/05/06 13:49:35;;;;;;;6.18;3.10;;;;;;;;;;10291986;28;20502;-72
2023/05/06 13:54:33;;;;;;;9.10;3.85;;;;;;;;;;10291144;28;20068;-72
2023/05/06 13:59:32;;;;;;;6.22;3.72;;;;;;;;;;10290249;28;20080;-72
2023/05/06 14:04:30;;;;;;;8.98;4.10;;;;;;;;;;10296007;28;20064;-70
2023/05/06 14:09:30;;;;;;;5.93;3.17;;;;;;;;;;10299930;28;20450;-71
2023/05/06 14:14:28;;;;;;;6.32;3.50;;;;;;;;;;10299702;28;20068;-72
2023/05/06 14:19:28;;;;;;;10.05;4.45;;;;;;;;;;10297370;28;20076;-72
2023/05/06 14:24:27;;;;;;;7.13;4.47;;;;;;;;;;10292321;28;20065;-70
2023/05/06 14:29:26;;;;;;;6.22;4.75;;;;;;;;;;10300206;28;20497;-70
2023/05/06 14:34:25;;;;;;;10.65;5.93;;;;;;;;;;10291549;28;20068;-71
2023/05/06 14:39:23;;;;;;;7.15;4.85;;;;;;;;;;10293812;28;20064;-71
2023/05/06 14:44:22;;;;;;;9.57;6.00;;;;;;;;;;10295941;28;20103;-72
2023/05/06 14:49:21;;;;;;;7.82;4.15;;;;;;;;;;10294410;28;20068;-71
2023/05/06 14:54:19;;;;;;;17.45;9.45;;;;;;;;;;10290243;28;20091;-71
2023/05/06 14:59:18;;;;;;;12.70;7.00;;;;;;;;;;10304646;28;20067;-71
2023/05/06 15:04:16;;;;;;;10.60;3.40;;;;;;;;;;10296444;28;20069;-71
2023/05/06 15:09:16;;;;;;;8.23;3.78;;;;;;;;;;10297599;28;20069;-71
2023/05/06 15:14:14;;;;;;;4.47;3.00;;;;;;;;;;10299863;28;20068;-71
2023/05/06 15:19:12;;;;;;;5.70;3.22;;;;;;;;;;10296583;28;20458;-70
2023/05/06 15:24:10;;;;;;;3.85;2.38;;;;;;;;;;10298943;28;20060;-70
2023/05/06 15:29:10;;;;;;;8.02;3.20;;;;;;;;;;10297931;28;20081;-70
2023/05/06 15:34:09;;;;;;;4.97;3.03;;;;;;;;;;10295317;28;20068;-70
2023/05/06 15:39:11;;;;;;;6.55;3.40;;;;;;;;;;10293848;28;20076;-69
2023/05/06 15:44:11;;;;;;;6.78;2.72;;;;;;;;;;10299499;28;20071;-69
2023/05/06 15:49:09;;;;;;;4.63;3.17;;;;;;;;;;10301903;28;20072;-70
2023/05/06 15:54:27;;;;;;;7.65;3.20;;;;;;;;;;10294396;28;20080;-70
2023/05/06 15:59:27;;;;;;;3.67;3.10;;;;;;;;;;10317361;28;21065;-72
2023/05/06 16:04:25;;;;;;;4.03;2.85;;;;;;;;;;10300254;28;20470;-71
2023/05/06 16:09:24;;;;;;;7.78;3.60;;;;;;;;;;10301772;28;20083;-74
2023/05/06 16:14:22;;;;;;;11.27;2.80;;;;;;;;;;10293324;28;20065;-70
2023/05/06 16:19:22;;;;;;;9.85;3.33;;;;;;;;;;10293728;28;20107;-70
2023/05/06 16:24:20;;;;;;;10.30;2.83;;;;;;;;;;10295252;28;20064;-70
2023/05/06 16:29:19;;;;;;;7.63;3.90;;;;;;;;;;10292141;28;20076;-70
2023/05/06 16:34:18;;;;;;;5.85;3.50;;;;;;;;;;10299749;28;20097;-70
2023/05/06 16:39:17;;;;;;;5.07;3.60;;;;;;;;;;10295840;28;20996;-70
2023/05/06 16:44:15;;;;;;;7.35;3.67;;;;;;;;;;10294046;28;20064;-70
2023/05/06 16:49:13;;;;;;;8.30;3.67;;;;;;;;;;10295555;28;20068;-72
2023/05/06 16:54:12;;;;;;;8.27;3.00;;;;;;;;;;10299721;28;20491;-71
2023/05/06 16:59:11;;;;;;;6.10;3.05;;;;;;;;;;10299037;28;20470;-69
2023/05/06 17:04:10;;;;;;;6.30;3.40;;;;;;;;;;10299602;28;20091;-70
2023/05/06 17:09:08;;;;;;;6.00;3.63;;;;;;;;;;10299064;28;20072;-70
2023/05/06 17:14:06;;;;;;;8.50;3.13;;;;;;;;;;10295437;28;20067;-70
2023/05/06 17:19:06;;;;;;;10.63;3.80;;;;;;;;;;10300822;28;20483;-70
2023/05/06 17:24:05;;;;;;;9.48;4.85;;;;;;;;;;10298273;28;20473;-70
2023/05/06 17:29:03;;;;;;;5.65;3.75;;;;;;;;;;10298027;28;20072;-71
2023/05/06 17:34:01;;;;;;;6.55;3.22;;;;;;;;;;10303462;28;20585;-71
2023/05/06 17:39:04;;;;;;;7.03;3.35;;;;;;;;;;10300987;28;20072;-70
2023/05/06 17:44:02;;;;;;;7.78;4.60;;;;;;;;;;10298923;28;20075;-71
2023/05/06 17:49:00;;;;;;;9.85;5.50;;;;;;;;;;10300289;28;20079;-70
2023/05/06 17:53:59;;;;;;;8.73;3.60;;;;;;;;;;10297277;28;20064;-70
2023/05/06 17:59:01;;;;;;;5.15;4.28;;;;;;;;;;10291350;28;20060;-71
2023/05/06 18:03:59;;;;;;;6.72;3.67;;;;;;;;;;10303557;28;20061;-68
2023/05/06 18:08:58;;;;;;;6.18;3.63;;;;;;;;;;10299499;28;20068;-70
2023/05/06 18:13:57;;;;;;;6.20;3.45;;;;;;;;;;10296922;28;20534;-70
2023/05/06 18:18:55;;;;;;;9.40;3.42;;;;;;;;;;10301572;28;20082;-69
2023/05/06 18:23:54;;;;;;;14.35;5.13;;;;;;;;;;10297429;28;20079;-70
2023/05/06 18:29:08;;;;;;;8.65;4.57;;;;;;;;;;10296695;28;20064;-70
2023/05/06 18:34:07;;;;;;;6.43;3.88;;;;;;;;;;10298646;28;20541;-69
2023/05/06 18:39:05;;;;;;;9.52;3.50;;;;;;;;;;10300618;28;20072;-69
2023/05/06 18:44:04;;;;;;;8.07;3.95;;;;;;;;;;10302356;28;20068;-69
2023/05/06 18:49:04;;;;;;;8.18;3.85;;;;;;;;;;10304056;28;20460;-69
2023/05/06 18:54:03;;;;;;;13.10;3.80;;;;;;;;;;10303618;28;20516;-69
2023/05/06 18:59:01;;;;;;;7.15;2.80;;;;;;;;;;10305104;28;20071;-69
2023/05/06 19:03:59;;;;;;;5.35;3.10;;;;;;;;;;10302843;28;20067;-69
2023/05/06 19:09:00;;;;;;;5.20;2.65;;;;;;;;;;10303270;28;20435;-68
2023/05/06 19:13:58;;;;;;;9.18;2.75;;;;;;;;;;10305693;28;20079;-69
2023/05/06 19:18:56;;;;;;;5.97;2.40;;;;;;;;;;10303612;28;20068;-68
2023/05/06 19:23:58;;;;;;;6.15;2.50;;;;;;;;;;10302994;28;20068;-68
2023/05/06 19:29:00;;;;;;;4.40;2.65;;;;;;;;;;10302853;28;20083;-68
2023/05/06 19:33:58;;;;;;;4.22;3.15;;;;;;;;;;10300625;28;20502;-69
2023/05/06 19:38:56;;;;;;;7.88;2.97;;;;;;;;;;10303098;28;20075;-69
2023/05/06 19:43:54;;;;;;;5.30;2.78;;;;;;;;;;10301392;28;20072;-68
2023/05/06 19:48:54;;;;;;;6.60;3.25;;;;;;;;;;10301535;28;20530;-68
2023/05/06 19:53:52;;;;;;;4.35;3.70;;;;;;;;;;10301312;28;20068;-69
2023/05/06 19:58:50;;;;;;;4.82;3.00;;;;;;;;;;10302252;28;20057;-69
2023/05/06 20:03:48;;;;;;;3.78;3.30;;;;;;;;;;10305204;28;20474;-69
2023/05/06 20:08:48;;;;;;;6.35;3.20;;;;;;;;;;10299920;28;20072;-69
2023/05/06 20:13:46;;;;;;;4.93;3.25;;;;;;;;;;10305404;28;20526;-69
2023/05/06 20:18:46;;;;;;;7.65;3.22;;;;;;;;;;10302060;28;20076;-71
2023/05/06 20:23:44;;;;;;;5.35;3.03;;;;;;;;;;10301199;28;20060;-69
2023/05/06 20:28:44;;;;;;;6.38;3.33;;;;;;;;;;10298322;28;20129;-69
2023/05/06 20:33:42;;;;;;;7.40;3.08;;;;;;;;;;10299823;28;20075;-69
2023/05/06 20:38:40;;;;;;;5.50;3.20;;;;;;;;;;10297024;28;20069;-69
2023/05/06 20:43:38;;;;;;;6.03;4.22;;;;;;;;;;10290078;28;20065;-69
2023/05/06 20:48:38;;;;;;;7.07;3.60;;;;;;;;;;10296887;28;20747;-69
2023/05/06 20:53:38;;;;;;;5.78;3.63;;;;;;;;;;10293447;28;20544;-68
2023/05/06 20:58:36;;;;;;;4.05;2.97;;;;;;;;;;10298351;28;20076;-68
2023/05/06 21:03:35;;;;;;;6.55;3.78;;;;;;;;;;10299826;28;20474;-68
2023/05/06 21:08:34;;;;;;;3.97;3.22;;;;;;;;;;10295658;28;20080;-68
2023/05/06 21:13:33;;;;;;;5.63;3.17;;;;;;;;;;10294230;28;20064;-68
2023/05/06 21:18:31;;;;;;;5.15;3.40;;;;;;;;;;10309266;28;20287;-67
2023/05/06 21:23:29;;;;;;;5.55;3.05;;;;;;;;;;10301172;28;20064;-68
2023/05/06 21:28:29;;;;;;;3.30;3.00;;;;;;;;;;10295358;28;20103;-66
2023/05/06 21:33:27;;;;;;;4.55;3.25;;;;;;;;;;10304264;28;20068;-68
2023/05/06 21:38:26;;;;;;;5.82;3.20;;;;;;;;;;10291616;28;20818;-68
2023/05/06 21:43:24;;;;;;;4.55;2.80;;;;;;;;;;10294708;28;20072;-68
2023/05/06 21:48:24;;;;;;;3.92;3.40;;;;;;;;;;10297852;28;20087;-68
2023/05/06 21:53:22;;;;;;;3.75;3.00;;;;;;;;;;10297007;28;20064;-67
2023/05/06 21:58:20;;;;;;;4.65;2.92;;;;;;;;;;10297186;28;20078;-67
2023/05/06 22:03:19;;;;;;;4.07;2.72;;;;;;;;;;10301998;28;20069;-68
2023/05/06 22:08:18;;;;;;;4.72;3.30;;;;;;;;;;10294210;28;20076;-66
2023/05/06 22:13:17;;;;;;;4.28;3.00;;;;;;;;;;10300834;28;20096;-67
2023/05/06 22:18:15;;;;;;;4.20;3.00;;;;;;;;;;10300016;28;20075;-68
2023/05/06 22:23:14;;;;;;;12.90;3.80;;;;;;;;;;10298857;28;20064;-68
2023/05/06 22:28:13;;;;;;;7.53;3.20;;;;;;;;;;10300424;28;20080;-67
2023/05/06 22:33:12;;;;;;;3.42;2.90;;;;;;;;;;10298733;28;20064;-68
2023/05/06 22:38:10;;;;;;;6.03;2.97;;;;;;;;;;10295275;28;20079;-68
2023/05/06 22:43:08;;;;;;;3.13;2.80;;;;;;;;;;10300091;28;20061;-68
2023/05/06 22:48:08;;;;;;;3.50;2.92;;;;;;;;;;10292927;28;20084;-68
2023/05/06 22:53:07;;;;;;;6.68;3.10;;;;;;;;;;10301175;28;20072;-68
2023/05/06 22:58:12;;;;;;;4.35;2.50;;;;;;;;;;10298680;28;20479;-69
2023/05/06 23:03:12;;;;;;;4.65;2.95;;;;;;;;;;10297369;28;20064;-69
2023/05/06 23:08:10;;;;;;;9.15;3.53;;;;;;;;;;10297023;28;20073;-69
2023/05/06 23:13:08;;;;;;;7.60;2.88;;;;;;;;;;10302048;28;20909;-69
2023/05/06 23:18:06;;;;;;;4.43;2.83;;;;;;;;;;10301953;28;20469;-70
2023/05/06 23:23:09;;;;;;;3.38;2.88;;;;;;;;;;10297398;28;20517;-70
2023/05/06 23:28:07;;;;;;;3.28;2.97;;;;;;;;;;10305777;28;20468;-69
2023/05/06 23:33:05;;;;;;;7.47;3.53;;;;;;;;;;10303411;28;20064;-70
2023/05/06 23:38:04;;;;;;;7.10;3.53;;;;;;;;;;10305500;28;20064;-69
2023/05/06 23:43:05;;;;;;;6.15;3.08;;;;;;;;;;10309423;28;20525;-69
2023/05/06 23:48:04;;;;;;;3.83;3.13;;;;;;;;;;10304439;28;20476;-70
2023/05/06 23:53:02;;;;;;;6.95;3.17;;;;;;;;;;10303799;28;20060;-69
2023/05/06 23:58:01;;;;;;;7.88;3.72;;;;;;;;;;10301491;28;20524;-69
